createdAt,value
2018-03-08T00:01:18.933Z,88.60
2018-03-08T00:04:04.693Z,88.90
2018-03-08T00:06:32.915Z,88.80
2018-03-08T00:09:01.064Z,89.00
2018-03-08T00:11:29.225Z,89.10
2018-03-08T00:13:57.396Z,89.20
2018-03-08T00:16:25.694Z,89.00
2018-03-08T00:18:54.688Z,89.50
2018-03-08T00:21:23.620Z,89.10
2018-03-08T00:23:51.767Z,89.10
2018-03-08T00:26:20.868Z,89.30
2018-03-08T00:28:49.049Z,89.30
2018-03-08T00:31:17.198Z,89.10
2018-03-08T00:33:46.118Z,89.20
2018-03-08T00:36:16.677Z,89.20
2018-03-08T00:38:44.820Z,89.30
2018-03-08T00:41:12.976Z,89.30
2018-03-08T00:43:41.962Z,89.30
2018-03-08T00:46:11.718Z,89.00
2018-03-08T00:48:39.857Z,89.00
2018-03-08T00:51:08.124Z,88.90
2018-03-08T00:53:37.050Z,89.10
2018-03-08T00:56:05.216Z,89.00
2018-03-08T00:58:33.986Z,89.20
2018-03-08T01:01:02.992Z,89.50
2018-03-08T01:03:31.257Z,89.50
2018-03-08T01:05:59.453Z,89.80
2018-03-08T01:08:27.591Z,89.80
2018-03-08T01:10:55.925Z,90.10
2018-03-08T01:13:24.240Z,90.20
2018-03-08T01:15:53.341Z,90.00
2018-03-08T01:18:21.818Z,89.90
2018-03-08T01:20:51.238Z,90.00
2018-03-08T01:23:19.510Z,89.90
2018-03-08T01:25:47.650Z,90.00
2018-03-08T01:28:15.970Z,89.80
2018-03-08T01:30:44.147Z,89.70
2018-03-08T01:33:12.362Z,89.90
2018-03-08T01:35:40.811Z,90.00
2018-03-08T01:38:08.965Z,89.90
2018-03-08T01:40:37.104Z,89.80
2018-03-08T01:43:05.336Z,90.00
2018-03-08T01:45:33.482Z,90.00
2018-03-08T01:48:01.667Z,90.00
2018-03-08T01:50:29.865Z,90.10
2018-03-08T01:52:58.936Z,90.00
2018-03-08T01:55:27.888Z,90.00
2018-03-08T01:57:56.821Z,89.70
2018-03-08T02:00:24.970Z,90.00
2018-03-08T02:02:54.705Z,90.30
2018-03-08T02:05:22.855Z,90.30
2018-03-08T02:07:51.766Z,90.30
2018-03-08T02:10:19.918Z,90.30
2018-03-08T02:12:48.939Z,90.30
2018-03-08T02:15:17.923Z,90.40
2018-03-08T02:17:46.060Z,90.40
2018-03-08T02:20:14.461Z,90.40
2018-03-08T02:22:42.597Z,90.80
2018-03-08T02:25:11.653Z,90.20
2018-03-08T02:27:40.230Z,90.20
2018-03-08T02:30:08.393Z,90.30
2018-03-08T02:32:37.300Z,90.30
2018-03-08T02:35:05.485Z,90.30
2018-03-08T02:37:33.720Z,90.30
2018-03-08T02:40:01.867Z,90.20
2018-03-08T02:42:30.034Z,90.20
2018-03-08T02:44:58.251Z,90.20
2018-03-08T02:47:27.275Z,90.30
2018-03-08T02:49:56.260Z,90.30
2018-03-08T02:52:24.870Z,90.30
2018-03-08T02:54:53.198Z,90.30
2018-03-08T02:57:21.383Z,90.30
2018-03-08T02:59:49.588Z,90.40
2018-03-08T03:02:17.856Z,90.40
2018-03-08T03:04:46.096Z,90.30
2018-03-08T03:07:16.431Z,90.30
2018-03-08T03:09:45.347Z,90.40
2018-03-08T03:12:13.495Z,90.40
2018-03-08T03:14:41.654Z,90.30
2018-03-08T03:17:10.631Z,90.30
2018-03-08T03:19:39.044Z,90.30
2018-03-08T03:22:07.398Z,90.70
2018-03-08T03:24:36.301Z,90.90
2018-03-08T03:27:05.261Z,90.80
2018-03-08T03:29:33.435Z,90.70
2018-03-08T03:32:05.585Z,90.80
2018-03-08T03:34:33.778Z,90.80
2018-03-08T03:37:02.184Z,90.80
2018-03-08T03:39:31.075Z,90.90
2018-03-08T03:42:00.011Z,90.80
2018-03-08T03:44:28.151Z,90.80
2018-03-08T03:46:56.511Z,91.00
2018-03-08T03:49:25.451Z,90.90
2018-03-08T03:51:53.600Z,90.80
2018-03-08T03:54:21.757Z,90.90
2018-03-08T03:56:50.688Z,90.90
2018-03-08T03:59:18.843Z,90.90
2018-03-08T04:01:46.986Z,91.00
2018-03-08T04:04:17.021Z,90.80
2018-03-08T04:06:45.174Z,90.80
2018-03-08T04:09:14.169Z,90.80
2018-03-08T04:11:43.174Z,90.80
2018-03-08T04:14:12.080Z,90.50
2018-03-08T04:16:40.361Z,90.50
2018-03-08T04:19:08.533Z,90.80
2018-03-08T04:21:36.677Z,90.90
2018-03-08T04:24:05.595Z,91.30
2018-03-08T04:26:33.792Z,91.30
2018-03-08T04:29:03.463Z,91.20
2018-03-08T04:31:32.017Z,91.10
2018-03-08T04:34:00.179Z,91.00
2018-03-08T04:36:29.032Z,91.10
2018-03-08T04:38:57.186Z,90.90
2018-03-08T04:41:25.356Z,90.80
2018-03-08T04:43:54.270Z,90.60
2018-03-08T04:46:22.439Z,90.60
2018-03-08T04:48:50.694Z,90.80
2018-03-08T04:51:19.402Z,90.70
2018-03-08T04:53:47.670Z,90.50
2018-03-08T04:56:15.834Z,90.70
2018-03-08T04:58:44.740Z,90.90
2018-03-08T05:01:12.891Z,90.90
2018-03-08T05:03:41.806Z,91.00
2018-03-08T05:06:09.948Z,90.90
2018-03-08T05:08:38.093Z,91.10
2018-03-08T05:11:06.277Z,91.10
2018-03-08T05:13:34.417Z,90.90
2018-03-08T05:16:03.373Z,91.10
2018-03-08T05:18:32.301Z,91.10
2018-03-08T05:21:00.543Z,91.10
2018-03-08T05:23:28.680Z,91.10
2018-03-08T05:25:56.834Z,91.10
2018-03-08T05:28:25.003Z,91.10
2018-03-08T05:30:53.314Z,91.10
2018-03-08T05:33:22.255Z,91.10
2018-03-08T05:35:50.405Z,91.10
2018-03-08T05:38:19.314Z,91.00
2018-03-08T05:40:47.802Z,91.00
2018-03-08T05:43:16.726Z,90.80
2018-03-08T05:45:44.878Z,91.20
2018-03-08T05:48:13.085Z,91.20
2018-03-08T05:50:43.105Z,91.20
2018-03-08T05:53:11.299Z,91.20
2018-03-08T05:55:39.971Z,91.30
2018-03-08T05:58:08.891Z,91.40
2018-03-08T06:00:37.055Z,91.20
2018-03-08T06:03:06.018Z,91.00
2018-03-08T06:05:34.503Z,91.00
2018-03-08T06:08:03.431Z,91.00
2018-03-08T06:10:31.652Z,91.00
2018-03-08T06:12:59.918Z,90.80
2018-03-08T06:15:28.080Z,90.60
2018-03-08T06:17:56.279Z,90.60
2018-03-08T06:20:24.437Z,90.60
2018-03-08T06:22:53.252Z,90.60
2018-03-08T06:25:21.490Z,90.40
2018-03-08T06:27:49.735Z,90.30
2018-03-08T06:30:17.985Z,90.30
2018-03-08T06:32:46.228Z,90.30
2018-03-08T06:35:15.266Z,90.00
2018-03-08T06:37:43.460Z,90.00
2018-03-08T06:40:11.644Z,90.10
2018-03-08T06:42:39.860Z,90.00
2018-03-08T06:45:08.025Z,90.10
2018-03-08T06:47:36.783Z,90.00
2018-03-08T06:50:05.060Z,89.30
2018-03-08T06:52:33.306Z,89.70
2018-03-08T06:55:02.231Z,88.90
2018-03-08T06:57:30.485Z,88.90
2018-03-08T06:59:58.630Z,88.40
2018-03-08T07:02:27.591Z,87.90
2018-03-08T07:04:56.027Z,87.60
2018-03-08T07:07:24.193Z,87.20
2018-03-08T07:09:53.141Z,86.90
2018-03-08T07:12:21.460Z,86.90
2018-03-08T07:14:49.636Z,86.80
2018-03-08T07:17:18.634Z,86.10
2018-03-08T07:19:47.554Z,85.70
2018-03-08T07:22:15.718Z,85.70
2018-03-08T07:24:44.036Z,84.60
2018-03-08T07:27:12.823Z,84.70
2018-03-08T07:29:40.974Z,83.80
2018-03-08T07:32:09.217Z,83.30
2018-03-08T07:34:37.406Z,83.40
2018-03-08T07:37:05.707Z,83.00
2018-03-08T07:39:33.859Z,82.80
2018-03-08T07:42:02.648Z,82.10
2018-03-08T07:44:30.926Z,82.30
2018-03-08T07:46:59.083Z,82.10
2018-03-08T07:49:27.234Z,81.90
2018-03-08T07:51:55.732Z,81.90
2018-03-08T07:54:23.896Z,81.70
2018-03-08T07:56:52.799Z,81.80
2018-03-08T07:59:22.062Z,81.80
2018-03-08T08:01:51.012Z,82.20
2018-03-08T08:04:30.870Z,82.00
2018-03-08T08:07:19.866Z,81.90
2018-03-08T08:09:48.019Z,81.50
2018-03-08T08:12:16.158Z,81.00
2018-03-08T08:14:44.550Z,80.70
2018-03-08T08:17:12.701Z,80.20
2018-03-08T08:19:41.009Z,79.50
2018-03-08T08:22:09.862Z,79.40
2018-03-08T08:24:39.039Z,78.90
2018-03-08T08:27:07.273Z,79.30
2018-03-08T08:29:35.424Z,79.40
2018-03-08T08:32:03.559Z,79.40
2018-03-08T08:34:31.739Z,80.60
2018-03-08T08:37:00.153Z,79.60
2018-03-08T08:39:28.293Z,79.80
2018-03-08T08:41:57.199Z,79.80
2018-03-08T08:44:30.542Z,79.60
2018-03-08T08:46:58.678Z,79.50
2018-03-08T08:49:27.160Z,79.50
2018-03-08T08:51:55.309Z,78.70
2018-03-08T08:54:23.472Z,78.30
2018-03-08T08:56:51.660Z,77.30
2018-03-08T08:59:20.699Z,77.50
2018-03-08T09:01:49.181Z,77.50
2018-03-08T09:04:17.330Z,77.90
2018-03-08T09:06:45.753Z,77.30
2018-03-08T09:09:13.906Z,77.90
2018-03-08T09:11:42.061Z,77.70
2018-03-08T09:14:10.210Z,77.50
2018-03-08T09:16:38.501Z,77.60
2018-03-08T09:19:06.690Z,77.50
2018-03-08T09:21:35.823Z,77.90
2018-03-08T09:24:04.190Z,78.10
2018-03-08T09:26:32.540Z,77.20
2018-03-08T09:29:00.816Z,77.40
2018-03-08T09:31:29.681Z,77.90
2018-03-08T09:33:57.834Z,78.00
2018-03-08T09:36:26.023Z,78.00
2018-03-08T09:38:54.231Z,78.40
2018-03-08T09:41:22.558Z,78.00
2018-03-08T09:43:50.752Z,78.70
2018-03-08T09:46:19.666Z,79.00
2018-03-08T09:48:47.812Z,79.00
2018-03-08T09:51:16.109Z,78.70
2018-03-08T09:53:44.276Z,78.20
2018-03-08T09:56:13.228Z,78.30
2018-03-08T09:58:41.640Z,78.20
2018-03-08T10:01:10.041Z,78.70
2018-03-08T10:03:38.203Z,78.90
2018-03-08T10:06:06.364Z,79.40
2018-03-08T10:08:35.306Z,79.80
2018-03-08T10:11:03.462Z,79.80
2018-03-08T10:13:31.636Z,80.10
2018-03-08T10:16:00.394Z,80.70
2018-03-08T10:18:29.907Z,80.80
2018-03-08T10:20:58.280Z,80.80
2018-03-08T10:23:27.211Z,79.90
2018-03-08T10:25:55.412Z,79.90
2018-03-08T10:28:24.181Z,80.50
2018-03-08T10:30:52.329Z,81.30
2018-03-08T10:33:20.563Z,81.90
2018-03-08T10:35:48.886Z,82.40
2018-03-08T10:38:17.133Z,82.80
2018-03-08T10:40:46.034Z,83.70
2018-03-08T10:43:14.168Z,83.70
2018-03-08T10:45:42.332Z,84.30
2018-03-08T10:48:10.661Z,84.80
2018-03-08T10:50:38.917Z,85.60
2018-03-08T10:53:07.950Z,86.30
2018-03-08T10:55:36.079Z,86.30
2018-03-08T10:58:04.454Z,86.40
2018-03-08T11:00:38.945Z,87.10
2018-03-08T11:03:07.140Z,87.10
2018-03-08T11:05:41.089Z,87.10
2018-03-08T11:08:09.348Z,86.70
2018-03-08T11:10:37.653Z,87.00
2018-03-08T11:13:05.804Z,87.00
2018-03-08T11:15:33.973Z,87.20
2018-03-08T11:18:02.209Z,86.60
2018-03-08T11:20:30.356Z,86.80
2018-03-08T11:22:58.635Z,87.20
2018-03-08T11:25:26.853Z,86.90
2018-03-08T11:27:55.774Z,87.20
2018-03-08T11:30:23.990Z,87.10
2018-03-08T11:32:52.518Z,86.80
2018-03-08T11:35:21.700Z,86.30
2018-03-08T11:37:53.814Z,86.30
2018-03-08T11:40:23.086Z,87.50
2018-03-08T11:42:51.249Z,87.40
2018-03-08T11:45:19.485Z,87.40
2018-03-08T11:47:48.246Z,87.30
2018-03-08T11:50:15.783Z,87.20
2018-03-08T11:52:44.327Z,86.60
2018-03-08T11:55:13.258Z,87.30
2018-03-08T11:57:41.522Z,87.20
2018-03-08T12:00:10.719Z,86.70
2018-03-08T12:02:39.272Z,86.60
2018-03-08T12:05:07.628Z,85.90
2018-03-08T12:07:36.059Z,86.10
2018-03-08T12:10:04.894Z,86.10
2018-03-08T12:12:33.674Z,83.50
2018-03-08T12:15:01.890Z,82.00
2018-03-08T12:17:30.045Z,81.90
2018-03-08T12:19:58.276Z,82.70
2018-03-08T12:22:27.272Z,81.70
2018-03-08T12:24:55.433Z,82.00
2018-03-08T12:27:23.820Z,81.90
2018-03-08T12:29:51.998Z,83.00
2018-03-08T12:32:20.172Z,83.80
2018-03-08T12:34:48.436Z,84.00
2018-03-08T12:37:16.810Z,84.60
2018-03-08T12:39:45.851Z,85.20
2018-03-08T12:42:14.207Z,85.10
2018-03-08T12:44:43.278Z,85.40
2018-03-08T12:47:12.296Z,85.20
2018-03-08T12:49:40.470Z,85.20
2018-03-08T12:52:09.260Z,86.20
2018-03-08T12:54:37.595Z,86.90
2018-03-08T12:57:05.768Z,86.80
2018-03-08T12:59:33.943Z,86.60
2018-03-08T13:02:02.164Z,87.60
2018-03-08T13:04:30.413Z,87.70
2018-03-08T13:06:59.317Z,88.70
2018-03-08T13:09:27.497Z,88.70
2018-03-08T13:11:55.886Z,88.40
2018-03-08T13:14:24.073Z,89.30
2018-03-08T13:16:52.363Z,89.20
2018-03-08T13:19:20.735Z,89.50
2018-03-08T13:21:49.595Z,89.90
2018-03-08T13:24:17.945Z,89.90
2018-03-08T13:26:47.040Z,90.50
2018-03-08T13:29:15.969Z,90.50
2018-03-08T13:31:44.381Z,90.50
2018-03-08T13:34:12.921Z,89.20
2018-03-08T13:36:41.275Z,88.00
2018-03-08T13:39:09.773Z,86.00
2018-03-08T13:41:38.902Z,84.90
2018-03-08T13:44:07.132Z,85.20
2018-03-08T13:46:35.502Z,84.70
2018-03-08T13:49:15.471Z,83.70
2018-03-08T13:51:43.735Z,81.70
2018-03-08T13:54:11.881Z,81.90
2018-03-08T13:56:40.051Z,80.50
2018-03-08T13:59:08.273Z,80.30
2018-03-08T14:01:36.600Z,80.10
2018-03-08T14:04:04.899Z,80.20
2018-03-08T14:06:33.793Z,78.80
2018-03-08T14:09:01.970Z,78.80
2018-03-08T14:11:30.884Z,78.30
2018-03-08T14:13:59.014Z,78.30
2018-03-08T14:16:28.024Z,78.20
2018-03-08T14:18:56.354Z,78.60
2018-03-08T14:21:24.600Z,79.20
2018-03-08T14:23:52.807Z,79.20
2018-03-08T14:26:20.961Z,78.90
2018-03-08T14:28:50.065Z,79.30
2018-03-08T14:31:18.217Z,80.50
2018-03-08T14:33:46.465Z,80.10
2018-03-08T14:36:15.660Z,79.30
2018-03-08T14:38:44.087Z,79.30
2018-03-08T14:41:12.560Z,79.00
2018-03-08T14:43:40.897Z,78.40
2018-03-08T14:46:09.040Z,77.70
2018-03-08T14:48:37.211Z,77.40
2018-03-08T14:51:05.717Z,77.50
2018-03-08T14:53:34.744Z,76.80
2018-03-08T14:56:03.061Z,76.70
2018-03-08T14:58:31.576Z,76.30
2018-03-08T15:01:00.494Z,75.40
2018-03-08T15:03:29.691Z,74.90
2018-03-08T15:05:58.000Z,74.90
2018-03-08T15:08:26.263Z,74.00
2018-03-08T15:10:54.469Z,74.60
2018-03-08T15:13:22.640Z,74.70
2018-03-08T15:15:50.994Z,74.60
2018-03-08T15:18:19.147Z,74.30
2018-03-08T15:20:48.006Z,75.10
2018-03-08T15:23:16.246Z,75.20
2018-03-08T15:25:44.481Z,75.40
2018-03-08T15:28:13.401Z,75.50
2018-03-08T15:30:41.548Z,75.50
2018-03-08T15:33:09.707Z,75.00
2018-03-08T15:35:38.634Z,74.40
2018-03-08T15:38:07.209Z,74.40
2018-03-08T15:40:35.366Z,74.20
2018-03-08T15:43:03.625Z,74.30
2018-03-08T15:45:32.642Z,74.60
2018-03-08T15:48:00.813Z,74.20
2018-03-08T15:50:29.722Z,73.10
2018-03-08T15:52:57.857Z,73.10
2018-03-08T15:55:26.016Z,73.60
2018-03-08T15:57:54.311Z,73.50
2018-03-08T16:00:23.338Z,73.40
2018-03-08T16:02:51.504Z,74.00
2018-03-08T16:05:19.714Z,75.00
2018-03-08T16:07:59.871Z,74.20
2018-03-08T16:10:36.006Z,74.30
2018-03-08T16:13:04.238Z,74.30
2018-03-08T16:15:32.378Z,73.80
2018-03-08T16:18:00.506Z,73.50
2018-03-08T16:20:28.687Z,71.60
2018-03-08T16:22:58.039Z,66.20
2018-03-08T16:25:26.227Z,60.90
2018-03-08T16:27:54.405Z,60.50
2018-03-08T16:30:22.701Z,59.40
2018-03-08T16:32:50.869Z,60.10
2018-03-08T16:35:19.840Z,59.40
2018-03-08T16:37:48.815Z,59.70
2018-03-08T16:40:17.009Z,59.60
2018-03-08T16:42:46.686Z,58.10
2018-03-08T16:45:15.415Z,58.10
2018-03-08T16:47:43.557Z,58.40
2018-03-08T16:50:11.731Z,58.40
2018-03-08T16:52:40.566Z,58.30
2018-03-08T16:55:08.757Z,58.20
2018-03-08T16:57:36.900Z,57.60
2018-03-08T17:00:05.109Z,55.30
2018-03-08T17:02:33.446Z,56.10
2018-03-08T17:05:02.380Z,55.10
2018-03-08T17:07:30.540Z,55.10
2018-03-08T17:09:58.935Z,55.40
2018-03-08T17:12:27.483Z,55.60
2018-03-08T17:14:55.664Z,56.10
2018-03-08T17:17:24.650Z,56.30
2018-03-08T17:19:54.308Z,56.80
2018-03-08T17:22:22.484Z,56.80
2018-03-08T17:24:50.661Z,57.30
2018-03-08T17:27:18.849Z,57.80
2018-03-08T17:29:47.548Z,57.60
2018-03-08T17:32:16.463Z,58.50
2018-03-08T17:34:45.511Z,58.00
2018-03-08T17:37:13.660Z,58.00
2018-03-08T17:39:41.829Z,58.00
2018-03-08T17:42:10.009Z,58.40
2018-03-08T17:44:38.141Z,58.60
2018-03-08T17:47:07.056Z,58.80
2018-03-08T17:49:36.054Z,58.60
2018-03-08T17:52:04.300Z,58.60
2018-03-08T17:54:33.230Z,59.80
2018-03-08T17:57:01.887Z,59.80
2018-03-08T17:59:30.793Z,60.50
2018-03-08T18:01:59.003Z,60.40
2018-03-08T18:04:27.380Z,60.70
2018-03-08T18:06:55.554Z,61.50
2018-03-08T18:09:23.832Z,62.10
2018-03-08T18:11:52.015Z,62.50
2018-03-08T18:14:20.958Z,63.40
2018-03-08T18:16:49.141Z,63.20
2018-03-08T18:19:17.592Z,64.30
2018-03-08T18:21:46.566Z,65.60
2018-03-08T18:24:14.971Z,65.50
2018-03-08T18:26:43.122Z,66.20
2018-03-08T18:29:12.044Z,66.20
2018-03-08T18:31:40.188Z,66.10
2018-03-08T18:34:08.368Z,66.30
2018-03-08T18:36:38.110Z,65.80
2018-03-08T18:39:06.364Z,65.60
2018-03-08T18:41:36.708Z,65.60
2018-03-08T18:44:05.143Z,65.60
2018-03-08T18:46:33.281Z,65.80
2018-03-08T18:49:01.592Z,65.90
2018-03-08T18:51:29.737Z,66.40
2018-03-08T18:53:58.377Z,66.60
2018-03-08T18:56:28.266Z,66.30
2018-03-08T18:58:56.564Z,66.30
2018-03-08T19:01:25.543Z,66.40
2018-03-08T19:03:54.741Z,67.00
2018-03-08T19:06:23.659Z,67.00
2018-03-08T19:08:52.574Z,66.80
2018-03-08T19:11:20.728Z,66.80
2018-03-08T19:13:50.555Z,66.80
2018-03-08T19:16:19.756Z,67.10
2018-03-08T19:18:48.174Z,67.10
2018-03-08T19:21:17.269Z,67.60
2018-03-08T19:23:45.405Z,67.90
2018-03-08T19:26:13.554Z,68.20
2018-03-08T19:28:42.337Z,68.60
2018-03-08T19:31:11.430Z,68.80
2018-03-08T19:33:40.460Z,69.00
2018-03-08T19:36:13.638Z,69.00
2018-03-08T19:38:45.166Z,69.30
2018-03-08T19:41:14.281Z,69.50
2018-03-08T19:43:42.584Z,69.50
2018-03-08T19:46:15.900Z,70.10
2018-03-08T19:48:44.386Z,70.00
2018-03-08T19:51:13.864Z,70.00
2018-03-08T19:53:42.846Z,70.20
2018-03-08T19:56:12.396Z,70.20
2018-03-08T19:58:40.634Z,70.20
2018-03-08T20:01:09.176Z,70.20
2018-03-08T20:03:38.169Z,70.50
2018-03-08T20:06:07.181Z,70.50
2018-03-08T20:08:36.091Z,70.50
2018-03-08T20:11:04.497Z,70.80
2018-03-08T20:13:33.743Z,72.00
2018-03-08T20:16:02.699Z,71.30
2018-03-08T20:18:30.875Z,71.30
2018-03-08T20:20:59.147Z,71.70
2018-03-08T20:23:27.328Z,72.10
2018-03-08T20:25:55.558Z,72.60
2018-03-08T20:28:23.710Z,72.70
2018-03-08T20:30:51.908Z,72.70
2018-03-08T20:33:20.049Z,72.90
2018-03-08T20:35:49.701Z,73.50
2018-03-08T20:38:17.909Z,73.50
2018-03-08T20:40:46.035Z,73.60
2018-03-08T20:43:14.193Z,73.90
2018-03-08T20:45:42.583Z,74.10
2018-03-08T20:48:10.722Z,74.50
2018-03-08T20:50:39.249Z,74.80
2018-03-08T20:53:07.693Z,74.90
2018-03-08T20:55:36.026Z,75.10
2018-03-08T20:58:05.122Z,75.20
2018-03-08T21:00:33.832Z,75.30
2018-03-08T21:03:03.027Z,75.60
2018-03-08T21:05:31.154Z,75.60
2018-03-08T21:07:59.315Z,75.50
2018-03-08T21:10:27.727Z,75.90
2018-03-08T21:12:55.859Z,75.90
2018-03-08T21:15:24.147Z,76.40
2018-03-08T21:17:53.446Z,76.40
2018-03-08T21:20:25.417Z,77.10
2018-03-08T21:22:53.554Z,76.90
2018-03-08T21:25:22.651Z,76.90
2018-03-08T21:27:51.570Z,78.10
2018-03-08T21:30:19.875Z,77.20
2018-03-08T21:32:48.157Z,77.60
2018-03-08T21:35:16.501Z,78.00
2018-03-08T21:37:44.648Z,78.10
2018-03-08T21:40:13.566Z,78.30
2018-03-08T21:42:42.330Z,78.30
2018-03-08T21:45:10.783Z,79.20
2018-03-08T21:47:39.108Z,78.90
2018-03-08T21:50:07.472Z,79.10
2018-03-08T21:52:35.999Z,79.00
2018-03-08T21:55:04.228Z,79.10
2018-03-08T21:57:33.197Z,79.20
2018-03-08T22:00:02.122Z,79.30
2018-03-08T22:02:30.259Z,79.30
2018-03-08T22:04:58.569Z,79.30
2018-03-08T22:07:28.167Z,79.50
2018-03-08T22:09:56.848Z,79.70
2018-03-08T22:12:25.044Z,79.90
2018-03-08T22:14:53.739Z,79.80
2018-03-08T22:17:21.892Z,79.80
2018-03-08T22:19:50.179Z,79.90
2018-03-08T22:22:18.342Z,80.10
2018-03-08T22:24:47.238Z,80.20
2018-03-08T22:27:15.694Z,79.90
2018-03-08T22:29:44.700Z,80.20
2018-03-08T22:32:13.612Z,80.30
2018-03-08T22:34:42.221Z,80.30
2018-03-08T22:37:10.354Z,80.40
2018-03-08T22:39:38.523Z,80.40
2018-03-08T22:42:07.005Z,80.40
2018-03-08T22:44:35.916Z,80.70
2018-03-08T22:47:04.105Z,80.70
2018-03-08T22:49:32.255Z,80.60
2018-03-08T22:52:00.387Z,80.70
2018-03-08T22:54:28.549Z,80.50
2018-03-08T22:56:56.962Z,80.60
2018-03-08T22:59:25.250Z,80.50
2018-03-08T23:02:12.308Z,80.80
2018-03-08T23:04:41.242Z,80.80
2018-03-08T23:07:10.159Z,81.00
2018-03-08T23:09:39.031Z,81.00
2018-03-08T23:12:07.343Z,80.80
2018-03-08T23:14:35.902Z,80.50
2018-03-08T23:17:04.144Z,80.20
2018-03-08T23:19:32.445Z,80.20
2018-03-08T23:22:01.351Z,80.20
2018-03-08T23:24:29.518Z,80.20
2018-03-08T23:26:58.761Z,80.70
2018-03-08T23:29:26.962Z,81.00
2018-03-08T23:31:55.100Z,81.30
2018-03-08T23:34:23.424Z,82.00
2018-03-08T23:36:52.218Z,81.70
2018-03-08T23:39:21.159Z,82.40
2018-03-08T23:41:49.472Z,82.40
2018-03-08T23:44:18.514Z,82.80
2018-03-08T23:46:46.752Z,82.70
2018-03-08T23:49:15.025Z,82.90
2018-03-08T23:51:48.863Z,83.50
2018-03-08T23:54:17.112Z,83.50
2018-03-08T23:56:45.443Z,83.60
2018-03-08T23:59:13.617Z,83.60
